Allerte
Precipitazioni in corso 

Messina
Monte S. Ang

Allerta Gelo (░C)  

Nessuna

Allerta Vento (km/h)  

Nessuna

Scarsa VisibilitÓ (m) 

Monte Termin
0

Allerta Caldo (░C)  

Nessuna

Allerta Afa (░C-UR)  

Nessuna

Dati e Grafici Climatici 3-7 gg
L'OMTeA propone un elaborazione dei più importanti parametri meteorologici rilevati dalle stazioni che hanno aderito al progetto di monitoraggio. In questa sezione è possibile consultare i dati provenienti dalle centraline, interpretati attraverso output testuale e grafico.
Se vuoi aderire alla rete OMTeA vai alla pagina Info e leggi requisiti e vantaggi.

Stazione di Cefal¨ - www.meteocefalu.altervista.org

Valori rilevati il 21/09/2017 alle ore 08:44

Temperatura atmosferica: 20.9 °C
Pressione atmosferica: 1015.5 mbar
Umidità relativa: 57 %
Intensità e direzione vento: 7.2 Km/h da OSO

Altitudine: 20 metri s.l.m.
Latitudine: 38.02° N
Longitudine: 14.01° E



Entra nella rete OMTeA!. Potrai liberamente usare sul tuo sito questi grafici; info alla pagina Istruzioni.

Ultime 50 rilevazioni
Orario Temp
°C
Rugiada
°C
Prec.
mm
Press.
mbar
Umidità
%
Int. vento
km/h
Dir.
vento
08:44 - 21/09 20.9 12.1 0 1015.50 57 7.2 OSO
08:29 - 21/09 20.9 12.1 0 1015.50 57 5.1 SSO
08:14 - 21/09 20.6 12.0 0 1015.20 58 3.5 OSO
07:59 - 21/09 20.5 11.9 0 1015.40 58 0 --
07:44 - 21/09 20.6 12.3 0 1015.10 59 4.2 ONO
07:29 - 21/09 20.4 12.1 0 1015.00 59 2.5 SSO
07:14 - 21/09 20.3 12.0 0 1015.00 59 2.5 ONO
06:59 - 21/09 20.2 11.4 0 1015.00 57 3.1 O
06:44 - 21/09 20.2 11.4 0 1015.10 57 3.1 O
06:29 - 21/09 20.2 11.4 0 1015.20 57 3.1 O
06:14 - 21/09 20.2 11.4 0 1015.00 57 3.1 O
05:59 - 21/09 20.2 11.7 0 1014.90 58 4.8 OSO
05:44 - 21/09 20.2 11.7 0 1014.90 58 5.3 SSE
05:29 - 21/09 20.2 11.7 0 1014.80 58 2.5 OSO
05:14 - 21/09 20.1 11.6 0 1014.70 58 4.2 SO
04:59 - 21/09 20.2 11.7 0 1014.90 58 5.2 NO
04:44 - 21/09 20.3 11.8 0 1014.60 58 4.4 ONO
04:29 - 21/09 20.3 11.8 0 1014.70 58 8.3 O
04:14 - 21/09 20.3 12.0 0 1014.80 59 4.5 N
03:59 - 21/09 20.3 11.8 0 1014.60 58 3.1 ONO
03:44 - 21/09 20.3 12.0 0 1014.60 59 6.3 OSO
03:29 - 21/09 20.4 11.3 0 1014.50 56 2.7 S
03:14 - 21/09 20.4 11.3 0 1014.80 56 5.1 OSO
02:59 - 21/09 20.4 11.6 0 1014.90 57 3.1 ONO
02:44 - 21/09 20.4 11.9 0 1014.80 58 4.3 SO
02:29 - 21/09 20.4 11.6 0 1015.00 57 2.4 SO
02:14 - 21/09 20.4 11.6 0 1014.90 57 5.9 O
01:59 - 21/09 20.4 11.6 0 1014.90 57 8.5 NO
01:44 - 21/09 20.4 11.3 0 1015.00 56 2.1 NO
01:29 - 21/09 20.5 11.4 0 1015.20 56 9.1 O
01:14 - 21/09 20.5 11.1 0 1015.00 55 3.5 SSO
00:59 - 21/09 20.4 11.9 0 1014.80 58 3.9 OSO
00:44 - 21/09 20.4 11.9 0 1014.80 58 3.9 OSO
00:29 - 21/09 20.4 11.6 0 1014.70 57 6.4 ONO
00:14 - 21/09 20.5 11.4 0 1014.70 56 8.7 SSE
23:59 - 20/09 20.5 10.9 0 1014.70 54 6.2 OSO
23:44 - 20/09 20.5 10.9 0 1014.70 54 5.9 ONO
23:29 - 20/09 20.6 11.5 0 1014.60 56 8.4 O
23:14 - 20/09 20.6 11.2 0 1014.60 55 7.9 OSO
22:59 - 20/09 20.6 11.2 0 1014.60 55 10.3 NO
22:44 - 20/09 20.7 11.6 0 1014.50 56 4.1 SSO
22:29 - 20/09 20.7 12.4 0 1014.50 59 7.0 OSO
22:14 - 20/09 20.7 12.9 0 1014.50 61 9.3 O
21:59 - 20/09 20.7 12.6 0 1014.30 60 10.5 OSO
21:44 - 20/09 20.8 12.5 0 1014.30 59 6.2 SO
21:29 - 20/09 20.9 12.3 0 1014.50 58 8.2 OSO
21:14 - 20/09 21.1 13.0 0 1014.30 60 6.4 O
20:59 - 20/09 21.1 13.0 0 1014.00 60 5.6 OSO
20:44 - 20/09 21.2 12.3 0 1014.20 57 14.6 ONO
20:29 - 20/09 21.3 12.2 0 1013.90 56 7.6 OSO


   In caso di mancato funzionamento di qualche risorsa, vi preghiamo di segnalarcelo alla pagina Contatti.
© 2017 Osservatorio Meteo OMTeA
Sito di informazione su Meteo, Tempo in atto e Clima in Italia